sensor_id;sensor_type;location;lat;lon;timestamp;P1;durP1;ratioP1;P2;durP2;ratioP2
41653;SDS011;30790;52.030;7.110;2022-12-07T00:01:18;3.03;;;1.10;;
41653;SDS011;30790;52.030;7.110;2022-12-07T00:03:45;1.55;;;1.10;;
41653;SDS011;30790;52.030;7.110;2022-12-07T00:06:13;2.08;;;1.20;;
41653;SDS011;30790;52.030;7.110;2022-12-07T00:08:39;2.38;;;1.35;;
41653;SDS011;30790;52.030;7.110;2022-12-07T00:11:10;1.38;;;1.17;;
41653;SDS011;30790;52.030;7.110;2022-12-07T00:13:37;3.33;;;1.50;;
41653;SDS011;30790;52.030;7.110;2022-12-07T00:16:04;1.33;;;1.10;;
41653;SDS011;30790;52.030;7.110;2022-12-07T00:18:31;1.50;;;1.30;;
41653;SDS011;30790;52.030;7.110;2022-12-07T00:21:03;4.45;;;1.67;;
41653;SDS011;30790;52.030;7.110;2022-12-07T00:23:53;2.38;;;1.52;;
41653;SDS011;30790;52.030;7.110;2022-12-07T00:26:23;1.58;;;1.30;;
41653;SDS011;30790;52.030;7.110;2022-12-07T00:28:52;2.90;;;1.52;;
41653;SDS011;30790;52.030;7.110;2022-12-07T00:31:20;1.75;;;1.30;;
41653;SDS011;30790;52.030;7.110;2022-12-07T00:33:47;2.08;;;1.40;;
41653;SDS011;30790;52.030;7.110;2022-12-07T00:36:14;2.50;;;1.40;;
41653;SDS011;30790;52.030;7.110;2022-12-07T00:38:41;1.50;;;1.20;;
41653;SDS011;30790;52.030;7.110;2022-12-07T00:41:09;1.80;;;1.30;;
41653;SDS011;30790;52.030;7.110;2022-12-07T00:43:36;2.38;;;1.40;;
41653;SDS011;30790;52.030;7.110;2022-12-07T00:46:01;1.90;;;1.33;;
41653;SDS011;30790;52.030;7.110;2022-12-07T00:48:26;1.88;;;1.15;;
41653;SDS011;30790;52.030;7.110;2022-12-07T00:50:52;2.30;;;1.30;;
41653;SDS011;30790;52.030;7.110;2022-12-07T00:53:17;2.03;;;1.20;;
41653;SDS011;30790;52.030;7.110;2022-12-07T00:55:43;2.50;;;1.40;;
41653;SDS011;30790;52.030;7.110;2022-12-07T00:58:09;1.98;;;1.30;;
41653;SDS011;30790;52.030;7.110;2022-12-07T01:00:35;1.80;;;1.48;;
41653;SDS011;30790;52.030;7.110;2022-12-07T01:03:02;3.05;;;1.75;;
41653;SDS011;30790;52.030;7.110;2022-12-07T01:05:28;3.05;;;1.25;;
41653;SDS011;30790;52.030;7.110;2022-12-07T01:07:53;3.80;;;1.38;;
41653;SDS011;30790;52.030;7.110;2022-12-07T01:10:18;2.08;;;1.50;;
41653;SDS011;30790;52.030;7.110;2022-12-07T01:12:44;0.88;;;0.85;;
41653;SDS011;30790;52.030;7.110;2022-12-07T01:15:09;2.60;;;1.25;;
41653;SDS011;30790;52.030;7.110;2022-12-07T01:17:34;1.67;;;1.17;;
41653;SDS011;30790;52.030;7.110;2022-12-07T01:20:00;2.45;;;1.23;;
41653;SDS011;30790;52.030;7.110;2022-12-07T01:22:26;3.45;;;1.15;;
41653;SDS011;30790;52.030;7.110;2022-12-07T01:24:51;1.13;;;1.02;;
41653;SDS011;30790;52.030;7.110;2022-12-07T01:27:16;2.53;;;1.60;;
41653;SDS011;30790;52.030;7.110;2022-12-07T01:29:42;1.77;;;1.33;;
41653;SDS011;30790;52.030;7.110;2022-12-07T01:32:07;2.37;;;1.40;;
41653;SDS011;30790;52.030;7.110;2022-12-07T01:34:32;3.28;;;1.35;;
41653;SDS011;30790;52.030;7.110;2022-12-07T01:36:57;1.77;;;1.00;;
41653;SDS011;30790;52.030;7.110;2022-12-07T01:39:23;1.20;;;1.00;;
41653;SDS011;30790;52.030;7.110;2022-12-07T01:41:49;1.08;;;0.90;;
41653;SDS011;30790;52.030;7.110;2022-12-07T01:44:24;1.58;;;1.20;;
41653;SDS011;30790;52.030;7.110;2022-12-07T01:46:55;1.38;;;1.20;;
41653;SDS011;30790;52.030;7.110;2022-12-07T01:52:22;1.52;;;1.08;;
41653;SDS011;30790;52.030;7.110;2022-12-07T01:54:53;1.58;;;1.00;;
41653;SDS011;30790;52.030;7.110;2022-12-07T01:57:23;1.23;;;1.02;;
41653;SDS011;30790;52.030;7.110;2022-12-07T01:59:49;1.58;;;1.25;;
41653;SDS011;30790;52.030;7.110;2022-12-07T02:02:27;1.80;;;1.20;;
41653;SDS011;30790;52.030;7.110;2022-12-07T02:04:56;1.33;;;1.00;;
41653;SDS011;30790;52.030;7.110;2022-12-07T02:07:25;1.75;;;1.20;;
41653;SDS011;30790;52.030;7.110;2022-12-07T02:09:52;1.75;;;1.15;;
41653;SDS011;30790;52.030;7.110;2022-12-07T02:12:18;1.75;;;1.20;;
41653;SDS011;30790;52.030;7.110;2022-12-07T02:14:44;1.33;;;1.00;;
41653;SDS011;30790;52.030;7.110;2022-12-07T02:17:19;1.33;;;1.02;;
41653;SDS011;30790;52.030;7.110;2022-12-07T02:23:12;1.13;;;0.90;;
41653;SDS011;30790;52.030;7.110;2022-12-07T02:28:55;1.17;;;1.08;;
41653;SDS011;30790;52.030;7.110;2022-12-07T02:31:44;1.67;;;1.00;;
41653;SDS011;30790;52.030;7.110;2022-12-07T02:34:20;1.48;;;1.00;;
41653;SDS011;30790;52.030;7.110;2022-12-07T02:36:55;1.60;;;1.25;;
41653;SDS011;30790;52.030;7.110;2022-12-07T02:39:43;1.10;;;1.00;;
41653;SDS011;30790;52.030;7.110;2022-12-07T02:42:23;1.80;;;1.10;;
41653;SDS011;30790;52.030;7.110;2022-12-07T02:44:54;1.05;;;0.98;;
41653;SDS011;30790;52.030;7.110;2022-12-07T02:47:19;1.33;;;1.05;;
41653;SDS011;30790;52.030;7.110;2022-12-07T02:49:47;0.95;;;0.85;;
41653;SDS011;30790;52.030;7.110;2022-12-07T02:52:14;2.65;;;1.17;;
41653;SDS011;30790;52.030;7.110;2022-12-07T02:54:39;1.02;;;0.90;;
41653;SDS011;30790;52.030;7.110;2022-12-07T03:05:41;1.40;;;1.05;;
41653;SDS011;30790;52.030;7.110;2022-12-07T03:11:13;1.65;;;1.17;;
41653;SDS011;30790;52.030;7.110;2022-12-07T03:13:53;1.00;;;0.90;;
41653;SDS011;30790;52.030;7.110;2022-12-07T03:16:29;1.38;;;1.00;;
41653;SDS011;30790;52.030;7.110;2022-12-07T03:19:06;2.03;;;0.90;;
41653;SDS011;30790;52.030;7.110;2022-12-07T03:21:37;1.25;;;1.02;;
41653;SDS011;30790;52.030;7.110;2022-12-07T03:24:08;1.95;;;1.15;;
41653;SDS011;30790;52.030;7.110;2022-12-07T03:26:38;1.67;;;1.13;;
41653;SDS011;30790;52.030;7.110;2022-12-07T03:29:09;1.52;;;1.23;;
41653;SDS011;30790;52.030;7.110;2022-12-07T03:31:40;1.73;;;1.05;;
41653;SDS011;30790;52.030;7.110;2022-12-07T03:34:11;2.45;;;1.08;;
41653;SDS011;30790;52.030;7.110;2022-12-07T03:36:55;1.55;;;1.02;;
41653;SDS011;30790;52.030;7.110;2022-12-07T03:42:26;1.02;;;0.85;;
41653;SDS011;30790;52.030;7.110;2022-12-07T03:44:51;1.10;;;1.00;;
41653;SDS011;30790;52.030;7.110;2022-12-07T03:47:27;1.10;;;0.90;;
41653;SDS011;30790;52.030;7.110;2022-12-07T03:50:41;1.38;;;0.88;;
41653;SDS011;30790;52.030;7.110;2022-12-07T03:52:44;1.25;;;1.00;;
41653;SDS011;30790;52.030;7.110;2022-12-07T03:57:46;1.35;;;0.73;;
41653;SDS011;30790;52.030;7.110;2022-12-07T04:00:14;0.77;;;0.77;;
41653;SDS011;30790;52.030;7.110;2022-12-07T04:02:41;1.73;;;1.10;;
41653;SDS011;30790;52.030;7.110;2022-12-07T04:05:06;1.70;;;0.93;;
41653;SDS011;30790;52.030;7.110;2022-12-07T04:07:32;2.85;;;1.23;;
41653;SDS011;30790;52.030;7.110;2022-12-07T04:09:58;2.75;;;0.90;;
41653;SDS011;30790;52.030;7.110;2022-12-07T04:12:23;1.05;;;0.75;;
41653;SDS011;30790;52.030;7.110;2022-12-07T04:14:49;1.55;;;1.10;;
41653;SDS011;30790;52.030;7.110;2022-12-07T04:17:14;2.25;;;1.10;;
41653;SDS011;30790;52.030;7.110;2022-12-07T04:19:39;1.15;;;1.05;;
41653;SDS011;30790;52.030;7.110;2022-12-07T04:22:05;1.92;;;1.08;;
41653;SDS011;30790;52.030;7.110;2022-12-07T04:24:31;2.78;;;1.17;;
41653;SDS011;30790;52.030;7.110;2022-12-07T04:26:57;1.05;;;0.80;;
41653;SDS011;30790;52.030;7.110;2022-12-07T04:29:22;1.30;;;0.80;;
41653;SDS011;30790;52.030;7.110;2022-12-07T04:31:47;1.63;;;1.00;;
41653;SDS011;30790;52.030;7.110;2022-12-07T04:34:13;1.67;;;0.70;;
41653;SDS011;30790;52.030;7.110;2022-12-07T04:36:40;1.52;;;0.88;;
41653;SDS011;30790;52.030;7.110;2022-12-07T04:39:06;1.25;;;0.93;;
41653;SDS011;30790;52.030;7.110;2022-12-07T04:41:32;1.20;;;0.80;;
41653;SDS011;30790;52.030;7.110;2022-12-07T04:43:59;0.80;;;0.70;;
41653;SDS011;30790;52.030;7.110;2022-12-07T04:46:27;0.90;;;0.85;;
41653;SDS011;30790;52.030;7.110;2022-12-07T04:48:54;1.00;;;0.65;;
41653;SDS011;30790;52.030;7.110;2022-12-07T04:51:24;1.50;;;0.93;;
41653;SDS011;30790;52.030;7.110;2022-12-07T04:53:51;1.17;;;1.05;;
41653;SDS011;30790;52.030;7.110;2022-12-07T04:56:17;1.77;;;0.90;;
41653;SDS011;30790;52.030;7.110;2022-12-07T04:58:43;1.75;;;0.90;;
41653;SDS011;30790;52.030;7.110;2022-12-07T05:01:10;1.25;;;1.05;;
41653;SDS011;30790;52.030;7.110;2022-12-07T05:03:36;0.93;;;0.82;;
41653;SDS011;30790;52.030;7.110;2022-12-07T05:06:02;1.45;;;1.00;;
41653;SDS011;30790;52.030;7.110;2022-12-07T05:08:28;1.85;;;1.15;;
41653;SDS011;30790;52.030;7.110;2022-12-07T05:10:53;2.47;;;0.98;;
41653;SDS011;30790;52.030;7.110;2022-12-07T05:13:18;1.35;;;1.02;;
41653;SDS011;30790;52.030;7.110;2022-12-07T05:15:44;0.65;;;0.60;;
41653;SDS011;30790;52.030;7.110;2022-12-07T05:18:09;2.00;;;1.13;;
41653;SDS011;30790;52.030;7.110;2022-12-07T05:20:37;2.40;;;0.85;;
41653;SDS011;30790;52.030;7.110;2022-12-07T05:23:03;1.80;;;0.95;;
41653;SDS011;30790;52.030;7.110;2022-12-07T05:25:28;1.85;;;0.95;;
41653;SDS011;30790;52.030;7.110;2022-12-07T05:27:54;0.90;;;0.80;;
41653;SDS011;30790;52.030;7.110;2022-12-07T05:30:20;0.70;;;0.60;;
41653;SDS011;30790;52.030;7.110;2022-12-07T05:32:45;0.93;;;0.80;;
41653;SDS011;30790;52.030;7.110;2022-12-07T05:35:11;0.63;;;0.63;;
41653;SDS011;30790;52.030;7.110;2022-12-07T05:37:36;1.52;;;0.90;;
41653;SDS011;30790;52.030;7.110;2022-12-07T05:40:02;1.30;;;0.70;;
41653;SDS011;30790;52.030;7.110;2022-12-07T05:42:28;1.02;;;0.93;;
41653;SDS011;30790;52.030;7.110;2022-12-07T05:44:53;1.25;;;0.70;;
41653;SDS011;30790;52.030;7.110;2022-12-07T05:47:18;1.20;;;0.80;;
41653;SDS011;30790;52.030;7.110;2022-12-07T05:49:44;1.43;;;0.80;;
41653;SDS011;30790;52.030;7.110;2022-12-07T05:52:09;3.17;;;0.82;;
41653;SDS011;30790;52.030;7.110;2022-12-07T05:54:34;1.92;;;0.88;;
41653;SDS011;30790;52.030;7.110;2022-12-07T05:57:00;0.80;;;0.80;;
41653;SDS011;30790;52.030;7.110;2022-12-07T05:59:25;0.88;;;0.85;;
41653;SDS011;30790;52.030;7.110;2022-12-07T06:01:53;0.82;;;0.80;;
41653;SDS011;30790;52.030;7.110;2022-12-07T06:04:19;0.93;;;0.60;;
41653;SDS011;30790;52.030;7.110;2022-12-07T06:06:45;2.63;;;0.70;;
41653;SDS011;30790;52.030;7.110;2022-12-07T06:09:10;1.25;;;1.00;;
41653;SDS011;30790;52.030;7.110;2022-12-07T06:11:36;2.20;;;1.02;;
41653;SDS011;30790;52.030;7.110;2022-12-07T06:14:20;1.40;;;0.90;;
41653;SDS011;30790;52.030;7.110;2022-12-07T06:16:46;1.42;;;0.77;;
41653;SDS011;30790;52.030;7.110;2022-12-07T06:19:11;6.38;;;1.02;;
41653;SDS011;30790;52.030;7.110;2022-12-07T06:21:36;1.05;;;0.68;;
41653;SDS011;30790;52.030;7.110;2022-12-07T06:24:02;1.00;;;0.80;;
41653;SDS011;30790;52.030;7.110;2022-12-07T06:26:27;3.47;;;1.10;;
41653;SDS011;30790;52.030;7.110;2022-12-07T06:28:53;2.08;;;0.90;;
41653;SDS011;30790;52.030;7.110;2022-12-07T06:31:18;1.48;;;0.80;;
41653;SDS011;30790;52.030;7.110;2022-12-07T06:33:44;1.38;;;0.90;;
41653;SDS011;30790;52.030;7.110;2022-12-07T06:36:09;1.92;;;0.98;;
41653;SDS011;30790;52.030;7.110;2022-12-07T06:38:35;2.25;;;0.80;;
41653;SDS011;30790;52.030;7.110;2022-12-07T06:41:00;1.23;;;0.70;;
41653;SDS011;30790;52.030;7.110;2022-12-07T06:43:25;1.27;;;0.90;;
41653;SDS011;30790;52.030;7.110;2022-12-07T06:45:51;1.27;;;0.70;;
41653;SDS011;30790;52.030;7.110;2022-12-07T06:48:16;1.30;;;0.90;;
41653;SDS011;30790;52.030;7.110;2022-12-07T06:50:43;1.00;;;0.70;;
41653;SDS011;30790;52.030;7.110;2022-12-07T06:53:09;1.35;;;0.88;;
41653;SDS011;30790;52.030;7.110;2022-12-07T06:55:35;1.92;;;0.80;;
41653;SDS011;30790;52.030;7.110;2022-12-07T06:58:00;2.40;;;1.00;;
41653;SDS011;30790;52.030;7.110;2022-12-07T07:00:26;1.77;;;1.00;;
41653;SDS011;30790;52.030;7.110;2022-12-07T07:02:51;1.40;;;0.70;;
41653;SDS011;30790;52.030;7.110;2022-12-07T07:05:17;0.80;;;0.80;;
41653;SDS011;30790;52.030;7.110;2022-12-07T07:07:42;1.25;;;0.70;;
41653;SDS011;30790;52.030;7.110;2022-12-07T07:10:07;2.22;;;0.90;;
41653;SDS011;30790;52.030;7.110;2022-12-07T07:12:33;1.30;;;0.70;;
41653;SDS011;30790;52.030;7.110;2022-12-07T07:14:58;0.85;;;0.70;;
41653;SDS011;30790;52.030;7.110;2022-12-07T07:17:24;1.85;;;0.90;;
41653;SDS011;30790;52.030;7.110;2022-12-07T07:19:49;2.75;;;0.80;;
41653;SDS011;30790;52.030;7.110;2022-12-07T07:22:14;1.00;;;0.60;;
41653;SDS011;30790;52.030;7.110;2022-12-07T07:24:39;4.57;;;0.98;;
41653;SDS011;30790;52.030;7.110;2022-12-07T07:27:05;2.10;;;0.90;;
41653;SDS011;30790;52.030;7.110;2022-12-07T07:29:31;1.98;;;1.00;;
41653;SDS011;30790;52.030;7.110;2022-12-07T07:31:56;2.05;;;1.15;;
41653;SDS011;30790;52.030;7.110;2022-12-07T07:34:21;9.25;;;2.47;;
41653;SDS011;30790;52.030;7.110;2022-12-07T07:36:47;5.32;;;2.67;;
41653;SDS011;30790;52.030;7.110;2022-12-07T07:39:12;6.82;;;3.60;;
41653;SDS011;30790;52.030;7.110;2022-12-07T07:41:37;8.57;;;4.35;;
41653;SDS011;30790;52.030;7.110;2022-12-07T07:44:03;6.80;;;3.78;;
41653;SDS011;30790;52.030;7.110;2022-12-07T07:46:28;7.00;;;3.70;;
41653;SDS011;30790;52.030;7.110;2022-12-07T07:48:53;8.13;;;4.70;;
41653;SDS011;30790;52.030;7.110;2022-12-07T07:51:19;4.27;;;3.10;;
41653;SDS011;30790;52.030;7.110;2022-12-07T07:53:44;8.27;;;4.22;;
41653;SDS011;30790;52.030;7.110;2022-12-07T07:56:09;6.85;;;3.55;;
41653;SDS011;30790;52.030;7.110;2022-12-07T07:58:34;4.97;;;3.50;;
41653;SDS011;30790;52.030;7.110;2022-12-07T08:01:04;8.32;;;3.05;;
41653;SDS011;30790;52.030;7.110;2022-12-07T08:03:30;6.18;;;3.20;;
41653;SDS011;30790;52.030;7.110;2022-12-07T08:05:55;8.02;;;4.00;;
41653;SDS011;30790;52.030;7.110;2022-12-07T08:08:21;5.85;;;3.38;;
41653;SDS011;30790;52.030;7.110;2022-12-07T08:10:46;7.03;;;3.35;;
41653;SDS011;30790;52.030;7.110;2022-12-07T08:13:11;6.50;;;3.47;;
41653;SDS011;30790;52.030;7.110;2022-12-07T08:15:38;9.38;;;3.00;;
41653;SDS011;30790;52.030;7.110;2022-12-07T08:18:08;7.40;;;3.80;;
41653;SDS011;30790;52.030;7.110;2022-12-07T08:20:34;6.53;;;3.90;;
41653;SDS011;30790;52.030;7.110;2022-12-07T08:23:01;6.38;;;3.38;;
41653;SDS011;30790;52.030;7.110;2022-12-07T08:25:27;5.63;;;3.25;;
41653;SDS011;30790;52.030;7.110;2022-12-07T08:27:52;5.90;;;3.13;;
41653;SDS011;30790;52.030;7.110;2022-12-07T08:30:18;8.32;;;3.15;;
41653;SDS011;30790;52.030;7.110;2022-12-07T08:32:44;9.57;;;3.50;;
41653;SDS011;30790;52.030;7.110;2022-12-07T08:35:10;11.60;;;3.22;;
41653;SDS011;30790;52.030;7.110;2022-12-07T08:37:35;10.80;;;2.88;;
41653;SDS011;30790;52.030;7.110;2022-12-07T08:40:02;9.10;;;2.88;;
41653;SDS011;30790;52.030;7.110;2022-12-07T08:42:28;7.00;;;2.72;;
41653;SDS011;30790;52.030;7.110;2022-12-07T08:44:54;6.68;;;2.83;;
41653;SDS011;30790;52.030;7.110;2022-12-07T08:47:23;6.03;;;2.50;;
41653;SDS011;30790;52.030;7.110;2022-12-07T08:49:49;5.13;;;2.45;;
41653;SDS011;30790;52.030;7.110;2022-12-07T08:52:17;7.82;;;2.60;;
41653;SDS011;30790;52.030;7.110;2022-12-07T08:54:42;6.90;;;2.83;;
41653;SDS011;30790;52.030;7.110;2022-12-07T08:57:08;4.15;;;2.45;;
41653;SDS011;30790;52.030;7.110;2022-12-07T08:59:35;6.05;;;2.70;;
41653;SDS011;30790;52.030;7.110;2022-12-07T09:02:02;6.93;;;2.58;;
41653;SDS011;30790;52.030;7.110;2022-12-07T09:04:27;6.75;;;2.28;;
41653;SDS011;30790;52.030;7.110;2022-12-07T09:06:53;9.48;;;2.72;;
41653;SDS011;30790;52.030;7.110;2022-12-07T09:09:19;7.68;;;2.70;;
41653;SDS011;30790;52.030;7.110;2022-12-07T09:11:44;5.90;;;2.40;;
41653;SDS011;30790;52.030;7.110;2022-12-07T09:14:10;3.50;;;2.05;;
41653;SDS011;30790;52.030;7.110;2022-12-07T09:16:35;5.90;;;2.35;;
41653;SDS011;30790;52.030;7.110;2022-12-07T09:19:01;4.10;;;1.90;;
41653;SDS011;30790;52.030;7.110;2022-12-07T09:21:26;5.72;;;2.40;;
41653;SDS011;30790;52.030;7.110;2022-12-07T09:23:51;6.55;;;2.42;;
41653;SDS011;30790;52.030;7.110;2022-12-07T09:26:17;7.65;;;1.90;;
41653;SDS011;30790;52.030;7.110;2022-12-07T09:28:42;5.70;;;2.30;;
41653;SDS011;30790;52.030;7.110;2022-12-07T09:31:07;5.65;;;2.40;;
41653;SDS011;30790;52.030;7.110;2022-12-07T09:33:33;6.32;;;2.30;;
41653;SDS011;30790;52.030;7.110;2022-12-07T09:35:58;8.23;;;2.75;;
41653;SDS011;30790;52.030;7.110;2022-12-07T09:38:23;3.70;;;2.17;;
41653;SDS011;30790;52.030;7.110;2022-12-07T09:40:51;5.55;;;2.50;;
41653;SDS011;30790;52.030;7.110;2022-12-07T09:43:18;5.68;;;2.05;;
41653;SDS011;30790;52.030;7.110;2022-12-07T09:45:46;3.35;;;1.75;;
41653;SDS011;30790;52.030;7.110;2022-12-07T09:48:17;3.38;;;1.90;;
41653;SDS011;30790;52.030;7.110;2022-12-07T09:50:45;5.40;;;2.50;;
41653;SDS011;30790;52.030;7.110;2022-12-07T09:53:14;5.97;;;2.30;;
41653;SDS011;30790;52.030;7.110;2022-12-07T09:55:45;10.85;;;2.00;;
41653;SDS011;30790;52.030;7.110;2022-12-07T09:58:21;7.10;;;2.22;;
41653;SDS011;30790;52.030;7.110;2022-12-07T10:01:05;6.70;;;2.60;;
41653;SDS011;30790;52.030;7.110;2022-12-07T10:03:38;8.77;;;1.95;;
41653;SDS011;30790;52.030;7.110;2022-12-07T10:06:05;8.27;;;2.15;;
41653;SDS011;30790;52.030;7.110;2022-12-07T10:08:32;4.75;;;2.00;;
41653;SDS011;30790;52.030;7.110;2022-12-07T10:10:58;7.50;;;2.33;;
41653;SDS011;30790;52.030;7.110;2022-12-07T10:13:35;4.53;;;2.00;;
41653;SDS011;30790;52.030;7.110;2022-12-07T10:16:01;10.88;;;1.98;;
41653;SDS011;30790;52.030;7.110;2022-12-07T10:18:28;9.60;;;2.60;;
41653;SDS011;30790;52.030;7.110;2022-12-07T10:21:02;5.60;;;2.53;;
41653;SDS011;30790;52.030;7.110;2022-12-07T10:23:28;5.32;;;1.90;;
41653;SDS011;30790;52.030;7.110;2022-12-07T10:25:53;6.88;;;2.00;;
41653;SDS011;30790;52.030;7.110;2022-12-07T10:28:20;11.07;;;2.38;;
41653;SDS011;30790;52.030;7.110;2022-12-07T10:30:50;5.57;;;1.90;;
41653;SDS011;30790;52.030;7.110;2022-12-07T10:33:54;7.45;;;2.10;;
41653;SDS011;30790;52.030;7.110;2022-12-07T10:41:18;3.22;;;1.90;;
41653;SDS011;30790;52.030;7.110;2022-12-07T10:44:03;6.13;;;2.10;;
41653;SDS011;30790;52.030;7.110;2022-12-07T10:49:21;4.20;;;2.17;;
41653;SDS011;30790;52.030;7.110;2022-12-07T10:52:10;6.70;;;2.08;;
41653;SDS011;30790;52.030;7.110;2022-12-07T10:57:41;3.42;;;1.92;;
41653;SDS011;30790;52.030;7.110;2022-12-07T11:00:31;7.28;;;2.28;;
41653;SDS011;30790;52.030;7.110;2022-12-07T11:05:56;5.23;;;1.67;;
41653;SDS011;30790;52.030;7.110;2022-12-07T11:11:18;6.50;;;2.15;;
41653;SDS011;30790;52.030;7.110;2022-12-07T11:21:48;5.37;;;1.90;;
41653;SDS011;30790;52.030;7.110;2022-12-07T11:24:43;3.97;;;1.75;;
41653;SDS011;30790;52.030;7.110;2022-12-07T11:32:53;5.00;;;1.67;;
41653;SDS011;30790;52.030;7.110;2022-12-07T11:35:45;7.25;;;1.70;;
41653;SDS011;30790;52.030;7.110;2022-12-07T11:38:15;7.70;;;1.95;;
41653;SDS011;30790;52.030;7.110;2022-12-07T11:40:46;6.35;;;1.67;;
41653;SDS011;30790;52.030;7.110;2022-12-07T11:43:30;10.18;;;1.95;;
41653;SDS011;30790;52.030;7.110;2022-12-07T11:46:07;9.07;;;2.42;;
41653;SDS011;30790;52.030;7.110;2022-12-07T11:48:46;3.85;;;1.55;;
41653;SDS011;30790;52.030;7.110;2022-12-07T11:51:33;3.50;;;2.20;;
41653;SDS011;30790;52.030;7.110;2022-12-07T11:54:02;5.43;;;2.03;;
41653;SDS011;30790;52.030;7.110;2022-12-07T11:56:35;8.23;;;2.37;;
41653;SDS011;30790;52.030;7.110;2022-12-07T11:59:13;5.25;;;1.90;;
41653;SDS011;30790;52.030;7.110;2022-12-07T12:02:16;11.75;;;2.55;;
41653;SDS011;30790;52.030;7.110;2022-12-07T12:04:54;5.50;;;2.20;;
41653;SDS011;30790;52.030;7.110;2022-12-07T12:07:26;4.97;;;2.10;;
41653;SDS011;30790;52.030;7.110;2022-12-07T12:21:46;8.15;;;2.03;;
41653;SDS011;30790;52.030;7.110;2022-12-07T12:24:16;9.80;;;2.45;;
41653;SDS011;30790;52.030;7.110;2022-12-07T12:26:51;7.45;;;2.47;;
41653;SDS011;30790;52.030;7.110;2022-12-07T12:29:43;13.85;;;2.50;;
41653;SDS011;30790;52.030;7.110;2022-12-07T12:32:16;4.47;;;1.88;;
41653;SDS011;30790;52.030;7.110;2022-12-07T12:42:46;9.80;;;2.65;;
41653;SDS011;30790;52.030;7.110;2022-12-07T12:45:22;6.10;;;2.05;;
41653;SDS011;30790;52.030;7.110;2022-12-07T12:47:56;10.77;;;2.40;;
41653;SDS011;30790;52.030;7.110;2022-12-07T12:52:55;6.35;;;2.38;;
41653;SDS011;30790;52.030;7.110;2022-12-07T12:55:27;7.72;;;2.08;;
41653;SDS011;30790;52.030;7.110;2022-12-07T13:00:43;4.85;;;2.00;;
41653;SDS011;30790;52.030;7.110;2022-12-07T13:03:21;15.45;;;2.65;;
41653;SDS011;30790;52.030;7.110;2022-12-07T13:06:06;6.22;;;2.03;;
41653;SDS011;30790;52.030;7.110;2022-12-07T13:08:57;8.88;;;2.28;;
41653;SDS011;30790;52.030;7.110;2022-12-07T13:11:38;6.15;;;1.95;;
41653;SDS011;30790;52.030;7.110;2022-12-07T13:17:55;9.85;;;2.05;;
41653;SDS011;30790;52.030;7.110;2022-12-07T13:20:00;6.10;;;1.50;;
41653;SDS011;30790;52.030;7.110;2022-12-07T13:22:34;6.25;;;2.00;;
41653;SDS011;30790;52.030;7.110;2022-12-07T13:25:10;5.15;;;2.00;;
41653;SDS011;30790;52.030;7.110;2022-12-07T13:27:40;7.50;;;2.03;;
41653;SDS011;30790;52.030;7.110;2022-12-07T13:30:12;7.60;;;1.98;;
41653;SDS011;30790;52.030;7.110;2022-12-07T13:32:40;6.20;;;2.22;;
41653;SDS011;30790;52.030;7.110;2022-12-07T13:37:53;11.63;;;2.65;;
41653;SDS011;30790;52.030;7.110;2022-12-07T13:40:19;8.75;;;1.80;;
41653;SDS011;30790;52.030;7.110;2022-12-07T13:42:46;4.30;;;1.85;;
41653;SDS011;30790;52.030;7.110;2022-12-07T13:45:22;9.90;;;1.90;;
41653;SDS011;30790;52.030;7.110;2022-12-07T13:48:10;8.00;;;1.73;;
41653;SDS011;30790;52.030;7.110;2022-12-07T13:50:51;4.82;;;1.70;;
41653;SDS011;30790;52.030;7.110;2022-12-07T13:55:44;4.67;;;1.67;;
41653;SDS011;30790;52.030;7.110;2022-12-07T13:58:10;7.32;;;1.90;;
41653;SDS011;30790;52.030;7.110;2022-12-07T14:00:36;3.17;;;1.48;;
41653;SDS011;30790;52.030;7.110;2022-12-07T14:05:28;9.23;;;2.00;;
41653;SDS011;30790;52.030;7.110;2022-12-07T14:08:20;5.57;;;1.73;;
41653;SDS011;30790;52.030;7.110;2022-12-07T14:16:01;4.07;;;1.55;;
41653;SDS011;30790;52.030;7.110;2022-12-07T14:18:28;4.75;;;1.55;;
41653;SDS011;30790;52.030;7.110;2022-12-07T14:23:29;4.93;;;1.50;;
41653;SDS011;30790;52.030;7.110;2022-12-07T14:26:03;6.88;;;1.70;;
41653;SDS011;30790;52.030;7.110;2022-12-07T14:28:33;3.60;;;1.50;;
41653;SDS011;30790;52.030;7.110;2022-12-07T14:31:00;2.42;;;1.65;;
41653;SDS011;30790;52.030;7.110;2022-12-07T14:33:26;5.63;;;2.10;;
41653;SDS011;30790;52.030;7.110;2022-12-07T14:35:52;4.70;;;1.60;;
41653;SDS011;30790;52.030;7.110;2022-12-07T14:38:20;4.70;;;1.85;;
41653;SDS011;30790;52.030;7.110;2022-12-07T14:40:53;5.85;;;2.22;;
41653;SDS011;30790;52.030;7.110;2022-12-07T14:43:18;5.50;;;1.70;;
41653;SDS011;30790;52.030;7.110;2022-12-07T14:45:45;4.40;;;1.60;;
41653;SDS011;30790;52.030;7.110;2022-12-07T14:48:11;8.55;;;1.70;;
41653;SDS011;30790;52.030;7.110;2022-12-07T14:50:39;8.05;;;1.92;;
41653;SDS011;30790;52.030;7.110;2022-12-07T14:53:12;4.50;;;1.38;;
41653;SDS011;30790;52.030;7.110;2022-12-07T14:55:40;9.00;;;2.13;;
41653;SDS011;30790;52.030;7.110;2022-12-07T14:58:05;5.97;;;1.88;;
41653;SDS011;30790;52.030;7.110;2022-12-07T15:00:30;3.30;;;1.55;;
41653;SDS011;30790;52.030;7.110;2022-12-07T15:02:56;3.95;;;1.55;;
41653;SDS011;30790;52.030;7.110;2022-12-07T15:05:22;3.03;;;1.50;;
41653;SDS011;30790;52.030;7.110;2022-12-07T15:07:47;3.00;;;1.40;;
41653;SDS011;30790;52.030;7.110;2022-12-07T15:10:20;5.05;;;1.50;;
41653;SDS011;30790;52.030;7.110;2022-12-07T15:12:47;3.80;;;1.55;;
41653;SDS011;30790;52.030;7.110;2022-12-07T15:15:12;4.13;;;1.17;;
41653;SDS011;30790;52.030;7.110;2022-12-07T15:17:38;2.42;;;1.25;;
41653;SDS011;30790;52.030;7.110;2022-12-07T15:20:04;4.63;;;1.80;;
41653;SDS011;30790;52.030;7.110;2022-12-07T15:22:30;5.38;;;1.60;;
41653;SDS011;30790;52.030;7.110;2022-12-07T15:24:56;2.88;;;1.27;;
41653;SDS011;30790;52.030;7.110;2022-12-07T15:27:22;4.75;;;1.80;;
41653;SDS011;30790;52.030;7.110;2022-12-07T15:29:47;5.60;;;1.70;;
41653;SDS011;30790;52.030;7.110;2022-12-07T15:32:12;4.85;;;1.45;;
41653;SDS011;30790;52.030;7.110;2022-12-07T15:34:37;8.20;;;2.30;;
41653;SDS011;30790;52.030;7.110;2022-12-07T15:37:03;4.53;;;1.63;;
41653;SDS011;30790;52.030;7.110;2022-12-07T15:39:28;5.05;;;1.70;;
41653;SDS011;30790;52.030;7.110;2022-12-07T15:41:53;6.07;;;1.48;;
41653;SDS011;30790;52.030;7.110;2022-12-07T15:44:19;4.50;;;1.40;;
41653;SDS011;30790;52.030;7.110;2022-12-07T15:47:03;5.00;;;1.50;;
41653;SDS011;30790;52.030;7.110;2022-12-07T15:49:30;1.92;;;1.08;;
41653;SDS011;30790;52.030;7.110;2022-12-07T15:51:55;8.48;;;1.88;;
41653;SDS011;30790;52.030;7.110;2022-12-07T15:54:22;4.20;;;1.80;;
41653;SDS011;30790;52.030;7.110;2022-12-07T15:56:49;6.97;;;1.60;;
41653;SDS011;30790;52.030;7.110;2022-12-07T15:59:15;7.55;;;1.50;;
41653;SDS011;30790;52.030;7.110;2022-12-07T16:01:40;4.47;;;1.90;;
41653;SDS011;30790;52.030;7.110;2022-12-07T16:04:06;3.72;;;1.50;;
41653;SDS011;30790;52.030;7.110;2022-12-07T16:06:31;4.22;;;1.80;;
41653;SDS011;30790;52.030;7.110;2022-12-07T16:08:56;4.18;;;1.60;;
41653;SDS011;30790;52.030;7.110;2022-12-07T16:11:22;5.78;;;1.60;;
41653;SDS011;30790;52.030;7.110;2022-12-07T16:13:47;3.03;;;1.20;;
41653;SDS011;30790;52.030;7.110;2022-12-07T16:16:14;2.42;;;1.33;;
41653;SDS011;30790;52.030;7.110;2022-12-07T16:18:44;4.55;;;1.52;;
41653;SDS011;30790;52.030;7.110;2022-12-07T16:21:10;3.40;;;1.80;;
41653;SDS011;30790;52.030;7.110;2022-12-07T16:23:36;5.07;;;1.67;;
41653;SDS011;30790;52.030;7.110;2022-12-07T16:26:08;4.65;;;1.77;;
41653;SDS011;30790;52.030;7.110;2022-12-07T16:28:36;4.70;;;1.75;;
41653;SDS011;30790;52.030;7.110;2022-12-07T16:31:08;6.80;;;1.42;;
41653;SDS011;30790;52.030;7.110;2022-12-07T16:33:36;6.70;;;1.83;;
41653;SDS011;30790;52.030;7.110;2022-12-07T16:36:02;4.05;;;1.80;;
41653;SDS011;30790;52.030;7.110;2022-12-07T16:38:29;3.80;;;1.67;;